map of KKC home
KKC - Airport
Location
City:  Khon Kaen, Khon Kaen, Thailand
ICAO:VTUK
IATA:KKC

Details
Type:Airport (Aerodrome, Airfield)
Use:Public/Civil
Latitude:1628'00"N (16.466628)
Longitude:10247'01"E (102.783661)
Datum:WGS 1984
Elevation:670 ft (204 m)
Variation:0.81W (WMM2015 magnetic declination)
-0.01 annual change
Runways:1
Longest:10007 × 148 ft (3050 × 45 m), paved

Time
Time Zone:UTC+7
Local Time:

Weather
METAR:VTUK 220400Z 08008KT 030V150 CAVOK 26/14 Q1019 NOSIG
TAF:VTUK 212300Z 2200/2224 08005KT 9000 FEW030

Related Locations
Nearby:
Farthest:SJA: 12286 mi / 19772 km
San Juan de Marcona [San Juan de Marcona Airport], ICA, PE

Find:

   beyond  
but within

Other Information
Maps:
NOTAMs:
Links:
Sources:

  
  • flag of Thailand
  

Sectional Chart

Flight Planning
at skyvector.com

Satellite Image

Google Maps Satellite view

 

Copyright © 2004-2019 Karl L. Swartz. All rights reserved.
The Great Circle Mapper name and logo are trademarks of the Great Circle Mapper.
All other trademarks mentioned herein belong to their respective owners.
Please see credits for attibutions and further copyright information.

  Follow gcmap on Facebook Follow gcmap on Twitter Follow gcmap on Google+ GCmap on LinkedIn

hCard Microformat

Geo Microformat